ETH5201 UBBB-VGHS
Flight info
| Callsign | ETH5201 |
|---|---|
| Flight time | N/A |
| Altitude | 31000 |
| Route | NAMAS N35 RODAR A909 BABUM A477 NONIK B361 DOKAN/N0488F330 B361 RARUN A125 ABNEP B352 GONAK/K0909F330 Y300 FIZLE T186 AMDAR/N0491F330 M875 TAPIS L509 SULOM A466 ASARI L509 GUGIP B345 KEVOD J71 PPT A201 BOGEP |
| Aircraft | MD11/H-SDE1E2E3FGHIJ2J3J4J5M1RWXY/LB1D1 |
Departure
| Time | N/A |
|---|---|
| Airport | Heydar Aliyev International Airport (UBBB) |
Arrival
| Time | 2026-04-26 21:35 |
|---|---|
| Airport | Hazrat Shahjalal International Airport (VGHS) |
| Time | Latitude | Longitude | Altitude | Speed | Heading |
|---|---|---|---|---|---|
| 2026-04-26 19:52 | 29.99674 | 76.54029 | 30715 ft | 519 kts | 125° |
| 2026-04-26 19:52 | 29.97693 | 76.57442 | 30708 ft | 518 kts | 125° |
| 2026-04-26 19:53 | 29.93679 | 76.64348 | 30714 ft | 517 kts | 125° |
| 2026-04-26 19:53 | 29.89671 | 76.71234 | 30715 ft | 517 kts | 125° |
| 2026-04-26 19:54 | 29.85650 | 76.78128 | 30715 ft | 517 kts | 125° |
| 2026-04-26 19:54 | 29.81630 | 76.84995 | 30717 ft | 517 kts | 126° |
| 2026-04-26 19:55 | 29.77611 | 76.91825 | 30715 ft | 517 kts | 125° |
| 2026-04-26 19:55 | 29.73593 | 76.98663 | 30707 ft | 516 kts | 125° |
| 2026-04-26 19:56 | 29.69574 | 77.05507 | 30711 ft | 515 kts | 125° |
| 2026-04-26 19:56 | 29.65551 | 77.12350 | 30707 ft | 515 kts | 125° |
| 2026-04-26 19:57 | 29.61542 | 77.19155 | 30709 ft | 515 kts | 125° |
| 2026-04-26 19:57 | 29.57519 | 77.25973 | 30706 ft | 515 kts | 125° |
| 2026-04-26 19:58 | 29.53486 | 77.32796 | 30815 ft | 517 kts | 125° |
| 2026-04-26 19:58 | 29.51481 | 77.36183 | 31084 ft | 517 kts | 125° |
| 2026-04-26 19:58 | 29.49449 | 77.39614 | 31366 ft | 517 kts | 125° |
| 2026-04-26 19:59 | 29.47439 | 77.43005 | 31642 ft | 517 kts | 125° |
| 2026-04-26 19:59 | 29.45400 | 77.46443 | 31903 ft | 517 kts | 125° |
| 2026-04-26 19:59 | 29.43386 | 77.49833 | 32141 ft | 517 kts | 125° |
| 2026-04-26 19:59 | 29.41372 | 77.53223 | 32389 ft | 517 kts | 125° |
| 2026-04-26 20:00 | 29.39335 | 77.56648 | 32618 ft | 517 kts | 125° |
| 2026-04-26 20:00 | 29.37291 | 77.60082 | 32685 ft | 518 kts | 125° |
| 2026-04-26 20:00 | 29.33229 | 77.66867 | 32693 ft | 519 kts | 125° |
| 2026-04-26 20:01 | 29.29149 | 77.73669 | 32689 ft | 518 kts | 125° |
| 2026-04-26 20:01 | 29.25059 | 77.80502 | 32685 ft | 519 kts | 125° |
| 2026-04-26 20:02 | 29.20983 | 77.87308 | 32685 ft | 519 kts | 125° |
| 2026-04-26 20:02 | 29.17593 | 77.92961 | 32686 ft | 519 kts | 125° |
| 2026-04-26 20:03 | 29.12794 | 78.00947 | 32688 ft | 521 kts | 125° |
| 2026-04-26 20:03 | 29.08693 | 78.07761 | 32686 ft | 521 kts | 125° |
| 2026-04-26 20:04 | 29.04589 | 78.14568 | 32686 ft | 521 kts | 125° |
| 2026-04-26 20:04 | 29.00469 | 78.21389 | 32680 ft | 521 kts | 125° |
| 2026-04-26 20:05 | 28.96341 | 78.28214 | 32683 ft | 522 kts | 125° |
| 2026-04-26 20:05 | 28.92223 | 78.35010 | 32683 ft | 522 kts | 125° |
| 2026-04-26 20:06 | 28.88090 | 78.41812 | 32683 ft | 522 kts | 126° |
| 2026-04-26 20:06 | 28.83934 | 78.48609 | 32686 ft | 522 kts | 126° |
| 2026-04-26 20:07 | 28.79793 | 78.55394 | 32681 ft | 522 kts | 125° |
| 2026-04-26 20:07 | 28.75649 | 78.62187 | 32686 ft | 522 kts | 126° |
| 2026-04-26 20:08 | 28.71505 | 78.68972 | 32700 ft | 523 kts | 126° |
| 2026-04-26 20:08 | 28.67341 | 78.75778 | 32681 ft | 524 kts | 126° |
| 2026-04-26 20:09 | 28.63183 | 78.82563 | 32681 ft | 524 kts | 126° |
| 2026-04-26 20:09 | 28.58996 | 78.89384 | 32679 ft | 524 kts | 126° |
| 2026-04-26 20:10 | 28.54831 | 78.96159 | 32679 ft | 524 kts | 126° |
| 2026-04-26 20:10 | 28.50637 | 79.02969 | 32679 ft | 524 kts | 126° |
| 2026-04-26 20:11 | 28.46466 | 79.09731 | 32678 ft | 525 kts | 126° |
| 2026-04-26 20:12 | 28.40168 | 79.19912 | 32673 ft | 525 kts | 126° |
| 2026-04-26 20:12 | 28.35943 | 79.26697 | 32685 ft | 525 kts | 126° |
| 2026-04-26 20:13 | 28.31751 | 79.33440 | 32667 ft | 525 kts | 126° |
| 2026-04-26 20:13 | 28.27528 | 79.40236 | 32683 ft | 525 kts | 126° |
| 2026-04-26 20:14 | 28.23313 | 79.47012 | 32681 ft | 526 kts | 126° |
| 2026-04-26 20:14 | 28.19078 | 79.53808 | 32681 ft | 527 kts | 126° |
| 2026-04-26 20:15 | 28.14868 | 79.60553 | 32678 ft | 527 kts | 126° |
| 2026-04-26 20:15 | 28.10633 | 79.67326 | 32678 ft | 527 kts | 126° |
| 2026-04-26 20:16 | 28.06409 | 79.74071 | 32682 ft | 527 kts | 126° |
| 2026-04-26 20:16 | 28.02157 | 79.80851 | 32692 ft | 527 kts | 126° |
| 2026-04-26 20:17 | 27.97909 | 79.87613 | 32679 ft | 527 kts | 126° |
| 2026-04-26 20:17 | 27.93669 | 79.94351 | 32670 ft | 527 kts | 126° |
| 2026-04-26 20:18 | 27.89395 | 80.01101 | 32677 ft | 527 kts | 126° |
| 2026-04-26 20:18 | 27.85135 | 80.07826 | 32673 ft | 527 kts | 126° |
| 2026-04-26 20:19 | 27.80866 | 80.14575 | 32686 ft | 527 kts | 126° |
| 2026-04-26 20:19 | 27.76613 | 80.21294 | 32684 ft | 529 kts | 126° |
| 2026-04-26 20:20 | 27.72343 | 80.28029 | 32672 ft | 529 kts | 126° |
| 2026-04-26 20:20 | 27.68032 | 80.34818 | 32693 ft | 529 kts | 126° |
| 2026-04-26 20:21 | 27.63757 | 80.41538 | 32679 ft | 529 kts | 126° |
| 2026-04-26 20:21 | 27.59470 | 80.48267 | 32689 ft | 529 kts | 126° |
| 2026-04-26 20:22 | 27.55153 | 80.55033 | 32690 ft | 530 kts | 127° |
| 2026-04-26 20:22 | 27.50847 | 80.61771 | 32691 ft | 532 kts | 127° |
| 2026-04-26 20:23 | 27.46534 | 80.68510 | 32692 ft | 532 kts | 127° |
| 2026-04-26 20:23 | 27.42199 | 80.75253 | 32683 ft | 532 kts | 127° |
| 2026-04-26 20:24 | 27.37835 | 80.82019 | 32700 ft | 532 kts | 127° |
| 2026-04-26 20:24 | 27.33504 | 80.88746 | 32701 ft | 532 kts | 127° |
| 2026-04-26 20:25 | 27.29169 | 80.95478 | 32692 ft | 534 kts | 127° |
| 2026-04-26 20:25 | 27.24809 | 81.02240 | 32704 ft | 534 kts | 127° |
| 2026-04-26 20:26 | 27.20439 | 81.09006 | 32693 ft | 534 kts | 127° |
| 2026-04-26 20:26 | 27.16074 | 81.15751 | 32699 ft | 534 kts | 127° |
| 2026-04-26 20:27 | 27.11724 | 81.22465 | 32703 ft | 534 kts | 127° |
| 2026-04-26 20:27 | 27.07341 | 81.29218 | 32693 ft | 534 kts | 127° |
| 2026-04-26 20:28 | 27.02991 | 81.35916 | 32703 ft | 535 kts | 126° |
| 2026-04-26 20:28 | 26.99186 | 81.43079 | 32706 ft | 535 kts | 112° |
| 2026-04-26 20:29 | 26.97257 | 81.51100 | 32696 ft | 531 kts | 94° |
| 2026-04-26 20:29 | 26.97509 | 81.59257 | 32704 ft | 524 kts | 76° |
| 2026-04-26 20:30 | 26.99514 | 81.67062 | 32706 ft | 520 kts | 67° |
| 2026-04-26 20:30 | 27.01908 | 81.74723 | 32708 ft | 520 kts | 67° |
| 2026-04-26 20:31 | 27.03824 | 81.81140 | 32709 ft | 520 kts | 68° |
| 2026-04-26 20:31 | 27.06017 | 81.88845 | 32708 ft | 521 kts | 69° |
| 2026-04-26 20:32 | 27.08193 | 81.96624 | 32713 ft | 521 kts | 69° |
| 2026-04-26 20:32 | 27.10357 | 82.04368 | 32711 ft | 521 kts | 69° |
| 2026-04-26 20:33 | 27.12161 | 82.12246 | 32708 ft | 525 kts | 78° |
| 2026-04-26 20:33 | 27.12284 | 82.20451 | 32712 ft | 532 kts | 96° |
| 2026-04-26 20:34 | 27.10312 | 82.28428 | 32711 ft | 535 kts | 114° |
| 2026-04-26 20:34 | 27.06703 | 82.35760 | 32712 ft | 536 kts | 122° |
| 2026-04-26 20:35 | 27.02747 | 82.42831 | 32713 ft | 536 kts | 122° |
| 2026-04-26 20:35 | 26.98889 | 82.49967 | 32711 ft | 536 kts | 121° |
| 2026-04-26 20:36 | 26.95097 | 82.57194 | 32708 ft | 536 kts | 120° |
| 2026-04-26 20:36 | 26.91336 | 82.64396 | 32708 ft | 536 kts | 120° |
| 2026-04-26 20:37 | 26.87580 | 82.71564 | 32708 ft | 536 kts | 120° |
| 2026-04-26 20:37 | 26.83805 | 82.78743 | 32718 ft | 536 kts | 120° |
| 2026-04-26 20:38 | 26.80016 | 82.85936 | 32716 ft | 537 kts | 120° |
| 2026-04-26 20:38 | 26.76212 | 82.93147 | 32713 ft | 537 kts | 121° |
| 2026-04-26 20:39 | 26.72414 | 83.00333 | 32710 ft | 537 kts | 121° |
| 2026-04-26 20:39 | 26.68618 | 83.07505 | 32715 ft | 537 kts | 121° |
| 2026-04-26 20:40 | 26.64790 | 83.14702 | 32705 ft | 537 kts | 121° |
| 2026-04-26 20:40 | 26.60964 | 83.21872 | 32712 ft | 538 kts | 121° |
| 2026-04-26 20:41 | 26.57151 | 83.29029 | 32708 ft | 538 kts | 121° |
| 2026-04-26 20:41 | 26.53315 | 83.36231 | 32714 ft | 538 kts | 121° |
| 2026-04-26 20:42 | 26.49483 | 83.43414 | 32710 ft | 538 kts | 121° |
| 2026-04-26 20:42 | 26.45664 | 83.50560 | 32708 ft | 538 kts | 121° |
| 2026-04-26 20:43 | 26.41808 | 83.57764 | 32695 ft | 539 kts | 121° |
| 2026-04-26 20:43 | 26.37978 | 83.64909 | 32710 ft | 537 kts | 121° |
| 2026-04-26 20:44 | 26.34148 | 83.72039 | 32703 ft | 537 kts | 121° |
| 2026-04-26 20:44 | 26.30310 | 83.79173 | 32708 ft | 537 kts | 121° |
| 2026-04-26 20:45 | 26.26459 | 83.86320 | 32708 ft | 537 kts | 121° |
| 2026-04-26 20:45 | 26.22597 | 83.93469 | 32714 ft | 538 kts | 121° |
| 2026-04-26 20:46 | 26.18758 | 84.00593 | 32710 ft | 539 kts | 121° |
| 2026-04-26 20:46 | 26.14891 | 84.07776 | 32708 ft | 539 kts | 121° |
| 2026-04-26 20:47 | 26.11060 | 84.14883 | 32706 ft | 537 kts | 121° |
| 2026-04-26 20:47 | 26.07193 | 84.22045 | 32704 ft | 537 kts | 121° |
| 2026-04-26 20:48 | 26.03347 | 84.29155 | 32716 ft | 537 kts | 122° |
| 2026-04-26 20:48 | 25.99497 | 84.36262 | 32703 ft | 539 kts | 122° |
| 2026-04-26 20:49 | 25.95618 | 84.43410 | 32705 ft | 539 kts | 122° |
| 2026-04-26 20:49 | 25.91746 | 84.50535 | 32705 ft | 540 kts | 122° |
| 2026-04-26 20:50 | 25.87857 | 84.57681 | 32704 ft | 539 kts | 122° |
| 2026-04-26 20:50 | 25.83974 | 84.64803 | 32692 ft | 539 kts | 122° |
| 2026-04-26 20:51 | 25.80076 | 84.71908 | 32712 ft | 540 kts | 122° |
| 2026-04-26 20:51 | 25.76164 | 84.79035 | 32692 ft | 540 kts | 122° |
| 2026-04-26 20:52 | 25.72267 | 84.86145 | 32713 ft | 540 kts | 122° |
| 2026-04-26 20:52 | 25.68359 | 84.93272 | 32691 ft | 540 kts | 122° |
| 2026-04-26 20:53 | 25.64464 | 85.00362 | 32701 ft | 540 kts | 122° |
| 2026-04-26 20:53 | 25.60575 | 85.07433 | 32691 ft | 540 kts | 121° |
| 2026-04-26 20:54 | 25.57491 | 85.15020 | 32691 ft | 540 kts | 104° |
| 2026-04-26 20:54 | 25.56130 | 85.23178 | 32675 ft | 539 kts | 97° |
| 2026-04-26 20:55 | 25.55090 | 85.31364 | 32701 ft | 538 kts | 98° |
| 2026-04-26 20:55 | 25.53805 | 85.39565 | 32705 ft | 539 kts | 100° |
| 2026-04-26 20:56 | 25.52390 | 85.47691 | 32706 ft | 538 kts | 101° |
| 2026-04-26 20:56 | 25.50954 | 85.55807 | 32703 ft | 538 kts | 100° |
| 2026-04-26 20:57 | 25.49530 | 85.63898 | 32707 ft | 538 kts | 100° |
| 2026-04-26 20:57 | 25.48104 | 85.72019 | 32706 ft | 538 kts | 100° |
| 2026-04-26 20:58 | 25.46679 | 85.80111 | 32705 ft | 538 kts | 100° |
| 2026-04-26 20:58 | 25.45240 | 85.88252 | 32708 ft | 538 kts | 101° |
| 2026-04-26 20:59 | 25.43803 | 85.96347 | 32710 ft | 538 kts | 101° |
| 2026-04-26 20:59 | 25.42351 | 86.04473 | 32702 ft | 538 kts | 101° |
| 2026-04-26 21:00 | 25.40885 | 86.12567 | 32706 ft | 538 kts | 101° |
| 2026-04-26 21:00 | 25.39419 | 86.20708 | 32713 ft | 537 kts | 101° |
| 2026-04-26 21:01 | 25.37962 | 86.28803 | 32711 ft | 536 kts | 101° |
| 2026-04-26 21:01 | 25.36512 | 86.36847 | 32713 ft | 536 kts | 101° |
| 2026-04-26 21:02 | 25.34569 | 86.44825 | 32715 ft | 536 kts | 111° |
| 2026-04-26 21:02 | 25.31551 | 86.52322 | 32711 ft | 536 kts | 116° |
| 2026-04-26 21:03 | 25.28307 | 86.59760 | 32719 ft | 535 kts | 116° |
| 2026-04-26 21:03 | 25.25163 | 86.67195 | 32722 ft | 534 kts | 115° |
| 2026-04-26 21:04 | 25.22095 | 86.74612 | 32721 ft | 534 kts | 115° |
| 2026-04-26 21:04 | 25.19004 | 86.82103 | 32724 ft | 534 kts | 115° |
| 2026-04-26 21:05 | 25.15928 | 86.89531 | 32719 ft | 534 kts | 115° |
| 2026-04-26 21:05 | 25.12831 | 86.96988 | 32731 ft | 534 kts | 115° |
| 2026-04-26 21:06 | 25.09735 | 87.04429 | 32725 ft | 534 kts | 115° |
| 2026-04-26 21:06 | 25.06641 | 87.11853 | 32727 ft | 534 kts | 115° |
| 2026-04-26 21:07 | 25.03529 | 87.19308 | 32733 ft | 534 kts | 115° |
| 2026-04-26 21:07 | 25.00423 | 87.26724 | 32734 ft | 534 kts | 115° |
| 2026-04-26 21:08 | 24.97305 | 87.34122 | 32741 ft | 531 kts | 115° |
| 2026-04-26 21:08 | 24.94191 | 87.41519 | 32740 ft | 532 kts | 115° |
| 2026-04-26 21:09 | 24.91075 | 87.48929 | 32733 ft | 532 kts | 115° |
| 2026-04-26 21:09 | 24.87971 | 87.56304 | 32739 ft | 532 kts | 115° |
| 2026-04-26 21:10 | 24.84861 | 87.63680 | 32744 ft | 532 kts | 115° |
| 2026-04-26 21:10 | 24.81747 | 87.71053 | 32743 ft | 532 kts | 115° |
| 2026-04-26 21:11 | 24.78628 | 87.78426 | 32740 ft | 531 kts | 115° |
| 2026-04-26 21:11 | 24.75534 | 87.85854 | 32737 ft | 531 kts | 115° |
| 2026-04-26 21:12 | 24.72505 | 87.93229 | 32731 ft | 531 kts | 115° |
| 2026-04-26 21:12 | 24.69470 | 88.00622 | 32728 ft | 531 kts | 115° |
| 2026-04-26 21:13 | 24.66421 | 88.08006 | 32725 ft | 530 kts | 115° |
| 2026-04-26 21:13 | 24.63367 | 88.15370 | 32727 ft | 529 kts | 115° |
| 2026-04-26 21:14 | 24.60321 | 88.22705 | 32720 ft | 529 kts | 115° |
| 2026-04-26 21:14 | 24.57273 | 88.30039 | 32723 ft | 529 kts | 115° |
| 2026-04-26 21:15 | 24.54203 | 88.37413 | 32721 ft | 529 kts | 115° |
| 2026-04-26 21:15 | 24.51137 | 88.44742 | 32722 ft | 529 kts | 115° |
| 2026-04-26 21:16 | 24.48091 | 88.52051 | 32717 ft | 526 kts | 116° |
| 2026-04-26 21:16 | 24.46586 | 88.55657 | 32461 ft | 518 kts | 116° |
| 2026-04-26 21:16 | 24.45079 | 88.59264 | 32193 ft | 518 kts | 116° |
| 2026-04-26 21:16 | 24.43633 | 88.62904 | 31720 ft | 519 kts | 111° |
| 2026-04-26 21:17 | 24.42498 | 88.66660 | 31108 ft | 521 kts | 106° |
| 2026-04-26 21:17 | 24.41582 | 88.70523 | 30483 ft | 523 kts | 103° |
| 2026-04-26 21:17 | 24.40771 | 88.74405 | 29872 ft | 526 kts | 102° |
| 2026-04-26 21:17 | 24.39978 | 88.78320 | 29126 ft | 529 kts | 102° |
| 2026-04-26 21:18 | 24.39169 | 88.82241 | 28407 ft | 531 kts | 102° |
| 2026-04-26 21:18 | 24.38319 | 88.86236 | 27699 ft | 533 kts | 103° |
| 2026-04-26 21:18 | 24.37458 | 88.90184 | 26992 ft | 535 kts | 103° |
| 2026-04-26 21:18 | 24.36582 | 88.94133 | 26312 ft | 537 kts | 103° |
| 2026-04-26 21:19 | 24.35693 | 88.98109 | 25624 ft | 534 kts | 103° |
| 2026-04-26 21:19 | 24.34817 | 89.02016 | 24948 ft | 530 kts | 103° |
| 2026-04-26 21:19 | 24.33934 | 89.05950 | 24266 ft | 525 kts | 103° |
| 2026-04-26 21:19 | 24.33068 | 89.09805 | 23600 ft | 520 kts | 103° |
| 2026-04-26 21:20 | 24.32203 | 89.13661 | 22862 ft | 516 kts | 102° |
| 2026-04-26 21:20 | 24.31353 | 89.17447 | 22145 ft | 511 kts | 103° |
| 2026-04-26 21:20 | 24.30512 | 89.21192 | 21469 ft | 507 kts | 103° |
| 2026-04-26 21:20 | 24.29675 | 89.24914 | 20820 ft | 503 kts | 103° |
| 2026-04-26 21:21 | 24.28838 | 89.28629 | 20164 ft | 498 kts | 103° |
| 2026-04-26 21:21 | 24.28009 | 89.32306 | 19518 ft | 494 kts | 103° |
| 2026-04-26 21:21 | 24.27184 | 89.35958 | 18890 ft | 491 kts | 103° |
| 2026-04-26 21:21 | 24.26364 | 89.39589 | 18260 ft | 488 kts | 103° |
| 2026-04-26 21:22 | 24.25557 | 89.43152 | 17571 ft | 485 kts | 103° |
| 2026-04-26 21:22 | 24.25018 | 89.45532 | 17123 ft | 482 kts | 103° |
| 2026-04-26 21:22 | 24.24213 | 89.49083 | 16477 ft | 478 kts | 103° |
| 2026-04-26 21:23 | 24.22604 | 89.56113 | 15238 ft | 470 kts | 104° |
| 2026-04-26 21:23 | 24.21815 | 89.59543 | 14638 ft | 466 kts | 104° |
| 2026-04-26 21:23 | 24.21029 | 89.62969 | 14034 ft | 463 kts | 104° |
| 2026-04-26 21:23 | 24.20253 | 89.66357 | 13438 ft | 459 kts | 104° |
| 2026-04-26 21:24 | 24.19480 | 89.69736 | 12786 ft | 455 kts | 104° |
| 2026-04-26 21:24 | 24.18708 | 89.73109 | 12169 ft | 451 kts | 104° |
| 2026-04-26 21:24 | 24.17950 | 89.76422 | 11596 ft | 448 kts | 104° |
| 2026-04-26 21:24 | 24.17200 | 89.79692 | 11113 ft | 444 kts | 104° |
| 2026-04-26 21:25 | 24.16444 | 89.82993 | 10874 ft | 439 kts | 104° |
| 2026-04-26 21:25 | 24.15724 | 89.86129 | 10751 ft | 418 kts | 104° |
| 2026-04-26 21:25 | 24.15033 | 89.89135 | 10618 ft | 400 kts | 103° |
| 2026-04-26 21:25 | 24.14649 | 89.92088 | 10467 ft | 382 kts | 90° |
| 2026-04-26 21:26 | 24.14676 | 89.94920 | 10247 ft | 369 kts | 84° |
| 2026-04-26 21:26 | 24.14864 | 89.97738 | 9743 ft | 368 kts | 81° |
| 2026-04-26 21:26 | 24.15100 | 90.00523 | 9128 ft | 371 kts | 82° |
| 2026-04-26 21:26 | 24.15344 | 90.03359 | 8531 ft | 371 kts | 83° |
| 2026-04-26 21:27 | 24.15570 | 90.06129 | 8218 ft | 363 kts | 83° |
| 2026-04-26 21:27 | 24.15775 | 90.08812 | 8092 ft | 348 kts | 84° |
| 2026-04-26 21:27 | 24.15964 | 90.11426 | 7922 ft | 331 kts | 85° |
| 2026-04-26 21:27 | 24.15774 | 90.13826 | 7521 ft | 306 kts | 110° |
| 2026-04-26 21:28 | 24.14764 | 90.15737 | 7085 ft | 280 kts | 139° |
| 2026-04-26 21:28 | 24.13344 | 90.17063 | 6728 ft | 260 kts | 150° |
| 2026-04-26 21:28 | 24.11889 | 90.18159 | 6366 ft | 251 kts | 153° |
| 2026-04-26 21:28 | 24.10463 | 90.19209 | 6046 ft | 244 kts | 153° |
| 2026-04-26 21:29 | 24.09087 | 90.20235 | 5878 ft | 232 kts | 152° |
| 2026-04-26 21:29 | 24.07793 | 90.21218 | 5760 ft | 222 kts | 152° |
| 2026-04-26 21:29 | 24.06542 | 90.22188 | 5407 ft | 220 kts | 150° |
| 2026-04-26 21:29 | 24.05326 | 90.23159 | 5045 ft | 215 kts | 150° |
| 2026-04-26 21:30 | 24.04132 | 90.24114 | 4716 ft | 210 kts | 150° |
| 2026-04-26 21:30 | 24.02962 | 90.25045 | 4373 ft | 207 kts | 150° |
| 2026-04-26 21:30 | 24.01792 | 90.25976 | 4035 ft | 205 kts | 150° |
| 2026-04-26 21:30 | 24.00656 | 90.26878 | 3705 ft | 203 kts | 150° |
| 2026-04-26 21:31 | 23.99522 | 90.27778 | 3388 ft | 201 kts | 149° |
| 2026-04-26 21:31 | 23.98393 | 90.28673 | 3084 ft | 200 kts | 149° |
| 2026-04-26 21:31 | 23.97252 | 90.29577 | 2814 ft | 200 kts | 150° |
| 2026-04-26 21:31 | 23.96133 | 90.30462 | 2544 ft | 199 kts | 149° |
| 2026-04-26 21:32 | 23.95020 | 90.31344 | 2281 ft | 197 kts | 149° |
| 2026-04-26 21:32 | 23.93916 | 90.32216 | 2018 ft | 196 kts | 148° |
| 2026-04-26 21:32 | 23.92815 | 90.33086 | 1760 ft | 194 kts | 147° |
| 2026-04-26 21:32 | 23.91731 | 90.33942 | 1520 ft | 192 kts | 146° |
| 2026-04-26 21:33 | 23.90680 | 90.34775 | 1235 ft | 174 kts | 146° |
| 2026-04-26 21:33 | 23.89722 | 90.35534 | 1053 ft | 169 kts | 145° |
| 2026-04-26 21:33 | 23.88768 | 90.36284 | 871 ft | 169 kts | 144° |
| 2026-04-26 21:33 | 23.87826 | 90.37015 | 660 ft | 167 kts | 144° |
| 2026-04-26 21:34 | 23.86882 | 90.37762 | 401 ft | 166 kts | 142° |
| 2026-04-26 21:34 | 23.85949 | 90.38504 | 213 ft | 166 kts | 142° |
| 2026-04-26 21:34 | 23.85035 | 90.39231 | 42 ft | 152 kts | 144° |
| 2026-04-26 21:34 | 23.84318 | 90.39794 | 42 ft | 106 kts | 144° |
| 2026-04-26 21:35 | 23.83819 | 90.40188 | 47 ft | 72 kts | 144° |
| 2026-04-26 21:35 | 23.83474 | 90.40457 | 45 ft | 49 kts | 144° |
| 2026-04-26 21:35 | 23.83283 | 90.40611 | 43 ft | 22 kts | 143° |
| 2026-04-26 21:35 | 23.83220 | 90.40734 | 45 ft | 16 kts | 75° |
| 2026-04-26 21:36 | 23.83263 | 90.40837 | 43 ft | 13 kts | 59° |
| 2026-04-26 21:36 | 23.83309 | 90.40904 | 41 ft | 10 kts | 52° |
| 2026-04-26 21:36 | 23.83350 | 90.40961 | 43 ft | 8 kts | 53° |
| 2026-04-26 21:36 | 23.83381 | 90.41007 | 43 ft | 7 kts | 53° |
| 2026-04-26 21:37 | 23.83406 | 90.41044 | 43 ft | 7 kts | 53° |
| 2026-04-26 21:37 | 23.83444 | 90.41098 | 43 ft | 11 kts | 48° |
| 2026-04-26 21:37 | 23.83508 | 90.41101 | 43 ft | 10 kts | 326° |
| 2026-04-26 21:37 | 23.83572 | 90.41050 | 43 ft | 12 kts | 323° |
| 2026-04-26 21:38 | 23.83646 | 90.40991 | 43 ft | 14 kts | 323° |
| 2026-04-26 21:38 | 23.83731 | 90.40923 | 43 ft | 16 kts | 323° |
| 2026-04-26 21:38 | 23.83826 | 90.40848 | 43 ft | 18 kts | 324° |
| 2026-04-26 21:38 | 23.83931 | 90.40765 | 43 ft | 19 kts | 323° |
| 2026-04-26 21:39 | 23.84046 | 90.40674 | 43 ft | 21 kts | 324° |
| 2026-04-26 21:39 | 23.84167 | 90.40578 | 41 ft | 22 kts | 323° |
| 2026-04-26 21:39 | 23.84295 | 90.40478 | 43 ft | 22 kts | 324° |
| 2026-04-26 21:39 | 23.84414 | 90.40382 | 43 ft | 21 kts | 323° |
| 2026-04-26 21:40 | 23.84525 | 90.40292 | 43 ft | 19 kts | 323° |
| 2026-04-26 21:40 | 23.84630 | 90.40210 | 42 ft | 18 kts | 324° |
| 2026-04-26 21:40 | 23.84727 | 90.40134 | 43 ft | 16 kts | 323° |
| 2026-04-26 21:40 | 23.84819 | 90.40060 | 43 ft | 17 kts | 323° |
| 2026-04-26 21:41 | 23.84926 | 90.39974 | 43 ft | 21 kts | 324° |
| 2026-04-26 21:41 | 23.85044 | 90.39881 | 43 ft | 16 kts | 324° |
| 2026-04-26 21:41 | 23.85108 | 90.39881 | 43 ft | 8 kts | 33° |
| 2026-04-26 21:41 | 23.85145 | 90.39929 | 43 ft | 9 kts | 52° |
| 2026-04-26 21:42 | 23.85176 | 90.39987 | 43 ft | 9 kts | 81° |
| 2026-04-26 21:42 | 23.85149 | 90.40028 | 43 ft | 7 kts | 153° |
| 2026-04-26 21:42 | 23.85112 | 90.40018 | 43 ft | 6 kts | 218° |
| 2026-04-26 21:42 | 23.85085 | 90.39982 | 42 ft | 6 kts | 233° |
| 2026-04-26 21:43 | 23.85077 | 90.39971 | 43 ft | 0 kts | 233° |